Time;durP1;ratioP1;P1;durP2;ratioP2;P2;SDS_P1;SDS_P2;PMS_P1;PMS_P2;Temp;Humidity;BMP_temperature;BMP_pressure;BME280_temperature;BME280_humidity;BME280_pressure;Samples;Min_cycle;Max_cycle;Signal;HPM_P1;HPM_P2
2023/05/13 00:01:40;;;;;;;6.15;4.30;;;16.30;85.50;;;;;;4921132;29;20019;-85
2023/05/13 00:04:06;;;;;;;6.28;4.18;;;16.30;85.50;;;;;;4921382;29;20055;-84
2023/05/13 00:06:32;;;;;;;6.30;4.60;;;16.30;85.50;;;;;;4921112;29;20054;-85
2023/05/13 00:08:58;;;;;;;6.22;4.57;;;16.40;85.50;;;;;;4921325;29;20047;-85
2023/05/13 00:11:24;;;;;;;7.43;4.57;;;16.30;85.40;;;;;;4920899;29;20028;-85
2023/05/13 00:13:50;;;;;;;6.20;4.35;;;16.30;85.50;;;;;;4920783;29;20492;-85
2023/05/13 00:16:15;;;;;;;7.10;4.80;;;16.30;85.40;;;;;;4920914;29;20015;-85
2023/05/13 00:18:40;;;;;;;6.40;4.60;;;16.30;85.50;;;;;;4920985;29;20451;-85
2023/05/13 00:21:06;;;;;;;6.90;4.40;;;16.30;85.40;;;;;;4920861;29;20527;-84
2023/05/13 00:23:32;;;;;;;6.15;4.50;;;16.30;85.40;;;;;;4920571;29;20032;-85
2023/05/13 00:25:58;;;;;;;6.93;4.50;;;16.30;85.40;;;;;;4921097;29;20027;-86
2023/05/13 00:28:24;;;;;;;6.38;4.68;;;16.30;85.40;;;;;;4920610;29;20027;-84
2023/05/13 00:30:49;;;;;;;6.32;4.30;;;16.40;85.50;;;;;;4920895;29;20415;-85
2023/05/13 00:33:15;;;;;;;6.18;4.57;;;16.30;85.40;;;;;;4920826;29;20026;-83
2023/05/13 00:35:40;;;;;;;6.53;4.72;;;16.30;85.40;;;;;;4937657;29;20019;-86
2023/05/13 00:38:06;;;;;;;6.70;4.53;;;16.30;85.40;;;;;;4920485;29;20039;-85
2023/05/13 00:40:35;;;;;;;6.45;4.43;;;16.30;85.40;;;;;;4920797;29;20023;-85
2023/05/13 00:43:01;;;;;;;5.85;4.53;;;16.30;85.40;;;;;;4920489;29;20045;-85
2023/05/13 00:45:26;;;;;;;6.63;4.60;;;16.30;85.40;;;;;;4920258;29;20500;-84
2023/05/13 00:47:52;;;;;;;5.65;4.25;;;16.30;85.40;;;;;;4920453;29;20051;-85
2023/05/13 00:50:18;;;;;;;6.68;4.78;;;16.20;85.30;;;;;;4920422;29;20024;-85
2023/05/13 00:52:43;;;;;;;6.80;4.70;;;16.30;85.40;;;;;;4920189;29;20028;-85
2023/05/13 00:55:09;;;;;;;6.28;4.25;;;16.30;85.40;;;;;;4937150;29;20055;-84
2023/05/13 00:57:36;;;;;;;5.75;4.40;;;16.30;85.40;;;;;;4920254;29;20027;-84
2023/05/13 01:00:04;;;;;;;6.85;4.57;;;16.30;85.30;;;;;;4920057;29;20095;-85
2023/05/13 01:02:53;;;;;;;6.47;4.78;;;16.30;85.40;;;;;;4920081;29;20075;-84
2023/05/13 01:05:32;;;;;;;5.95;4.57;;;16.30;85.40;;;;;;4919933;29;20456;-85
2023/05/13 01:08:16;;;;;;;7.38;4.90;;;16.30;85.40;;;;;;4919998;29;20020;-85
2023/05/13 01:11:02;;;;;;;6.40;4.70;;;16.30;85.40;;;;;;4920011;29;20020;-85
2023/05/13 01:13:35;;;;;;;6.60;4.90;;;16.30;85.40;;;;;;4919911;29;20062;-84
2023/05/13 01:16:28;;;;;;;6.50;4.55;;;16.30;85.40;;;;;;4936941;29;20015;-85
2023/05/13 01:19:16;;;;;;;6.82;5.07;;;16.30;85.30;;;;;;4936934;29;20043;-86
2023/05/13 01:21:51;;;;;;;6.97;4.85;;;16.30;85.30;;;;;;4936658;29;20035;-86
2023/05/13 01:24:17;;;;;;;7.38;5.05;;;16.30;85.40;;;;;;4919659;29;20115;-86
2023/05/13 01:26:42;;;;;;;7.10;4.93;;;16.30;85.30;;;;;;4919713;29;20067;-86
2023/05/13 01:29:08;;;;;;;6.78;4.68;;;16.30;85.30;;;;;;4920107;29;20024;-86
2023/05/13 01:31:34;;;;;;;6.57;4.70;;;16.30;85.30;;;;;;4919427;29;20580;-85
2023/05/13 01:34:01;;;;;;;6.95;4.78;;;16.30;85.30;;;;;;4919316;29;20024;-85
2023/05/13 01:36:26;;;;;;;6.72;4.70;;;16.30;85.30;;;;;;4919529;29;20019;-85
2023/05/13 01:38:54;;;;;;;6.50;4.90;;;16.30;85.20;;;;;;4919299;29;20024;-85
2023/05/13 01:41:20;;;;;;;6.60;4.95;;;16.30;85.20;;;;;;4919413;29;20023;-85
2023/05/13 01:43:46;;;;;;;7.32;5.20;;;16.30;85.20;;;;;;4919202;29;20027;-85
2023/05/13 01:46:12;;;;;;;7.65;5.05;;;16.20;85.20;;;;;;4919286;29;20020;-84
2023/05/13 01:48:37;;;;;;;6.65;4.45;;;16.30;85.70;;;;;;4919292;29;20123;-85
2023/05/13 01:51:03;;;;;;;6.28;4.65;;;16.30;85.20;;;;;;4919364;29;20059;-85
2023/05/13 01:53:29;;;;;;;6.60;4.82;;;16.30;85.20;;;;;;4919306;29;20171;-85
2023/05/13 01:55:54;;;;;;;6.60;4.80;;;16.30;85.20;;;;;;4936297;29;20024;-86
2023/05/13 01:58:20;;;;;;;6.55;4.97;;;16.30;85.20;;;;;;4919202;29;20030;-86
2023/05/13 02:00:45;;;;;;;6.50;5.22;;;16.30;85.20;;;;;;4918634;29;20425;-84
2023/05/13 02:03:11;;;;;;;6.80;5.00;;;16.30;85.20;;;;;;4918960;29;20075;-86
2023/05/13 02:05:36;;;;;;;6.47;4.90;;;16.30;85.20;;;;;;4918919;29;20020;-86
2023/05/13 02:08:02;;;;;;;8.27;5.32;;;16.30;85.20;;;;;;4936057;29;20102;-84
2023/05/13 02:10:27;;;;;;;6.70;5.00;;;16.30;85.20;;;;;;4918926;29;20018;-85
2023/05/13 02:12:53;;;;;;;6.88;4.88;;;16.30;85.20;;;;;;4918921;29;20032;-84
2023/05/13 02:15:18;;;;;;;6.20;5.05;;;16.30;85.20;;;;;;4918723;29;20016;-86
2023/05/13 02:17:44;;;;;;;6.63;4.72;;;16.20;85.10;;;;;;4918917;29;20030;-85
2023/05/13 02:20:10;;;;;;;6.93;5.18;;;16.20;85.10;;;;;;4935922;29;20042;-85
2023/05/13 02:22:35;;;;;;;6.32;4.68;;;16.30;85.20;;;;;;4918504;29;20032;-85
2023/05/13 02:25:03;;;;;;;7.00;5.00;;;16.20;85.10;;;;;;4918652;29;20016;-86
2023/05/13 02:27:28;;;;;;;6.38;5.03;;;16.30;85.20;;;;;;4918815;29;20473;-86
2023/05/13 02:29:54;;;;;;;6.80;4.88;;;16.20;85.10;;;;;;4916559;29;20119;-85
2023/05/13 02:32:19;;;;;;;6.32;4.88;;;16.20;85.10;;;;;;4911341;29;20047;-85
2023/05/13 02:34:45;;;;;;;7.30;5.22;;;16.20;85.10;;;;;;4899562;29;20473;-85
2023/05/13 02:37:10;;;;;;;7.45;5.45;;;16.30;85.10;;;;;;4899509;29;20019;-87
2023/05/13 02:39:36;;;;;;;6.40;4.70;;;16.20;85.00;;;;;;4899842;29;20020;-83
2023/05/13 02:42:02;;;;;;;6.70;5.05;;;16.20;85.10;;;;;;4916631;29;20024;-84
2023/05/13 02:44:27;;;;;;;7.25;5.25;;;16.20;85.00;;;;;;4916477;29;20020;-84
2023/05/13 02:46:53;;;;;;;6.68;5.10;;;16.20;85.00;;;;;;4899555;29;20042;-85
2023/05/13 02:49:18;;;;;;;6.95;5.10;;;16.20;85.00;;;;;;4899567;29;20396;-87
2023/05/13 02:51:44;;;;;;;6.90;5.13;;;16.20;85.00;;;;;;4899409;29;20020;-85
2023/05/13 02:54:09;;;;;;;7.03;5.28;;;16.20;85.00;;;;;;4899516;29;20141;-85
2023/05/13 02:56:35;;;;;;;6.20;4.80;;;16.20;85.00;;;;;;4899535;29;20039;-86
2023/05/13 02:59:00;;;;;;;6.70;5.13;;;16.30;85.10;;;;;;4899598;29;20090;-86
2023/05/13 03:01:26;;;;;;;7.10;5.22;;;16.20;84.90;;;;;;4899410;29;20032;-86
2023/05/13 03:03:52;;;;;;;7.07;4.93;;;16.30;85.00;;;;;;4915016;29;20055;-85
2023/05/13 03:06:17;;;;;;;6.40;5.03;;;16.30;85.00;;;;;;4899567;29;20486;-85
2023/05/13 03:08:42;;;;;;;6.05;4.90;;;16.20;84.90;;;;;;4899419;29;20532;-85
2023/05/13 03:11:08;;;;;;;6.82;5.30;;;16.20;84.90;;;;;;4899547;29;20024;-86
2023/05/13 03:13:33;;;;;;;7.03;5.25;;;16.20;84.90;;;;;;4901436;29;20060;-85
2023/05/13 03:15:59;;;;;;;6.80;5.03;;;16.20;84.90;;;;;;4903245;29;20016;-86
2023/05/13 03:18:24;;;;;;;6.40;5.03;;;16.20;84.90;;;;;;4920045;29;20029;-85
2023/05/13 03:20:50;;;;;;;7.88;5.43;;;16.20;84.80;;;;;;4903195;29;20047;-85
2023/05/13 03:23:15;;;;;;;8.18;5.43;;;16.20;84.90;;;;;;4903131;29;20035;-84
2023/05/13 03:25:41;;;;;;;6.57;4.95;;;16.20;84.90;;;;;;4902870;29;20032;-85
2023/05/13 03:28:08;;;;;;;7.10;5.60;;;16.20;84.80;;;;;;4902961;29;20032;-84
2023/05/13 04:51:12;;;;;;;9.02;6.07;;;16.20;83.70;;;;;;4936351;29;20055;-87
2023/05/13 04:54:36;;;;;;;;;;;;;;;;;;;;;
2023/05/13 06:05:31;;;;;;;7.38;6.55;;;16.20;80.50;;;;;;4918201;29;20116;-88
2023/05/13 06:19:12;;;;;;;9.30;6.82;;;16.30;80.30;;;;;;4878836;29;20117;-87
2023/05/13 06:47:09;;;;;;;;;;;;;;;;;;;;;
2023/05/13 07:19:03;;;;;;;8.68;6.03;;;16.60;79.80;;;;;;4976577;23;20146;-85
2023/05/13 07:24:06;;;;;;;8.13;6.20;;;16.70;80.00;;;;;;5431128;23;20051;-85
2023/05/13 07:26:37;;;;;;;7.20;6.13;;;16.70;80.00;;;;;;4917171;29;20032;-86
2023/05/13 07:29:03;;;;;;;8.00;6.15;;;16.70;79.80;;;;;;4898818;29;20489;-86
2023/05/13 07:42:01;;;;;;;8.57;6.18;;;16.80;79.70;;;;;;4938251;28;20530;-83
2023/05/13 07:51:34;;;;;;;7.82;6.13;;;16.90;80.10;;;;;;4952980;28;20046;-83
2023/05/13 07:57:56;;;;;;;;;;;16.90;80.10;;;;;;4973922;23;20082;-84
2023/05/13 08:00:21;;;;;;;8.63;5.57;;;16.90;80.00;;;;;;4920422;29;19907;-85
2023/05/13 08:02:47;;;;;;;24.15;7.25;;;16.90;79.30;;;;;;4920743;29;20028;-83
2023/05/13 08:05:12;;;;;;;22.23;7.15;;;16.90;78.50;;;;;;4920990;29;20132;-83
2023/05/13 08:07:38;;;;;;;22.25;6.97;;;16.80;78.20;;;;;;4937751;29;20107;-84
2023/05/13 08:10:04;;;;;;;23.02;7.18;;;16.80;77.80;;;;;;4920749;29;20101;-84
2023/05/13 08:12:29;;;;;;;16.48;6.47;;;16.80;78.90;;;;;;4937891;29;20417;-83
2023/05/13 08:14:55;;;;;;;14.52;6.43;;;16.80;79.40;;;;;;4924277;29;20031;-84
2023/05/13 08:17:21;;;;;;;14.38;6.85;;;16.90;79.60;;;;;;4926060;29;20023;-84
2023/05/13 08:19:46;;;;;;;14.85;6.55;;;16.90;79.40;;;;;;4925371;29;20436;-84
2023/05/13 08:22:12;;;;;;;12.60;6.63;;;16.90;78.90;;;;;;4942557;29;20087;-85
2023/05/13 08:24:39;;;;;;;12.85;6.35;;;17.00;78.80;;;;;;4925138;29;20187;-84
2023/05/13 08:27:05;;;;;;;15.18;6.25;;;17.00;78.80;;;;;;4925040;29;20374;-84
2023/05/13 08:29:30;;;;;;;15.70;6.25;;;17.00;78.80;;;;;;4924783;29;20043;-84
2023/05/13 08:31:56;;;;;;;13.35;6.57;;;17.10;78.90;;;;;;4941832;29;20029;-84
2023/05/13 08:34:22;;;;;;;15.32;6.55;;;17.10;78.70;;;;;;4938027;29;20223;-84
2023/05/13 08:36:47;;;;;;;12.23;5.95;;;17.10;78.80;;;;;;4939741;29;20158;-84
2023/05/13 08:39:12;;;;;;;11.70;5.97;;;17.10;78.70;;;;;;4941291;29;20074;-84
2023/05/13 08:41:40;;;;;;;11.93;6.28;;;17.10;78.60;;;;;;4940957;29;20043;-84
2023/05/13 08:44:08;;;;;;;14.43;6.50;;;17.20;78.70;;;;;;4923835;29;20032;-84
2023/05/13 08:46:36;;;;;;;10.50;5.90;;;17.20;78.80;;;;;;4914982;29;20055;-83
2023/05/13 08:49:02;;;;;;;13.13;6.15;;;17.20;78.60;;;;;;4920359;29;20034;-83
2023/05/13 08:51:28;;;;;;;11.25;5.60;;;17.20;78.60;;;;;;4923461;29;20027;-84
2023/05/13 08:53:54;;;;;;;11.95;6.20;;;17.20;78.70;;;;;;4940497;29;20548;-84
2023/05/13 08:56:24;;;;;;;9.60;5.88;;;17.20;79.00;;;;;;4922796;29;20031;-84
2023/05/13 08:58:49;;;;;;;12.38;5.97;;;17.20;78.60;;;;;;4940197;29;20031;-83
2023/05/13 09:01:16;;;;;;;10.38;5.82;;;17.30;78.70;;;;;;4922117;29;20031;-84
2023/05/13 09:04:01;;;;;;;11.02;5.60;;;17.30;78.80;;;;;;4922221;29;20389;-83
2023/05/13 09:06:27;;;;;;;8.40;5.20;;;17.30;78.90;;;;;;4923998;29;20035;-84
2023/05/13 09:08:53;;;;;;;9.73;5.40;;;17.30;78.70;;;;;;4925548;29;20090;-84
2023/05/13 09:11:20;;;;;;;8.77;5.55;;;17.30;78.80;;;;;;4923947;29;20020;-84
2023/05/13 09:13:56;;;;;;;10.02;6.05;;;17.40;79.00;;;;;;4924568;29;20034;-84
2023/05/13 09:16:22;;;;;;;9.35;5.63;;;17.40;78.90;;;;;;4924952;29;20445;-83
2023/05/13 09:18:48;;;;;;;9.50;5.30;;;17.40;78.90;;;;;;4924031;29;20437;-84
2023/05/13 09:21:24;;;;;;;8.68;5.47;;;17.40;79.10;;;;;;4924199;29;20063;-84
2023/05/13 09:24:04;;;;;;;8.13;5.10;;;17.30;79.00;;;;;;4923631;29;20027;-84
2023/05/13 09:26:30;;;;;;;7.47;5.28;;;17.40;79.10;;;;;;4923993;29;20047;-84
2023/05/13 09:29:24;;;;;;;8.40;5.60;;;17.40;79.10;;;;;;4923440;29;20087;-84
2023/05/13 09:31:56;;;;;;;7.88;5.05;;;17.40;79.20;;;;;;4923357;29;20027;-83
2023/05/13 09:34:30;;;;;;;10.43;5.93;;;17.40;79.20;;;;;;4922724;29;20126;-83
2023/05/13 09:36:58;;;;;;;8.45;5.53;;;17.50;79.20;;;;;;4922969;29;20070;-84
2023/05/13 09:39:24;;;;;;;8.55;5.30;;;17.50;79.10;;;;;;4922809;29;20527;-82
2023/05/13 09:41:50;;;;;;;8.77;5.43;;;17.50;79.20;;;;;;4932082;29;20031;-80
2023/05/13 09:44:16;;;;;;;8.90;5.32;;;17.50;79.20;;;;;;4913821;29;20051;-80
2023/05/13 09:46:42;;;;;;;8.25;5.00;;;17.50;79.20;;;;;;4913221;29;20446;-79
2023/05/13 09:49:09;;;;;;;8.35;5.55;;;17.50;79.00;;;;;;4921392;29;20493;-82
2023/05/13 09:51:35;;;;;;;8.65;5.03;;;17.50;79.10;;;;;;4939072;29;20024;-83
2023/05/13 09:54:06;;;;;;;8.40;5.50;;;17.50;79.20;;;;;;4923298;29;20034;-84
2023/05/13 09:56:34;;;;;;;7.65;5.10;;;17.50;79.30;;;;;;4922868;29;20019;-85
2023/05/13 09:59:01;;;;;;;8.23;5.32;;;17.60;79.30;;;;;;4923417;29;20501;-85
2023/05/13 10:01:27;;;;;;;7.15;4.80;;;17.50;79.20;;;;;;4922984;29;20032;-85
2023/05/13 10:04:00;;;;;;;9.25;4.90;;;17.60;79.30;;;;;;4919678;29;20401;-85
2023/05/13 10:06:28;;;;;;;6.75;4.72;;;17.60;79.30;;;;;;4936786;29;20023;-86
2023/05/13 10:08:57;;;;;;;8.75;5.10;;;17.60;79.20;;;;;;4919646;29;20028;-84
2023/05/13 10:11:23;;;;;;;7.30;5.10;;;17.60;79.40;;;;;;4918828;29;20027;-84
2023/05/13 10:13:54;;;;;;;8.80;5.03;;;17.60;79.20;;;;;;4920040;29;20049;-85
2023/05/13 10:16:21;;;;;;;7.10;5.13;;;17.60;79.20;;;;;;4937613;29;20078;-85
2023/05/13 10:18:47;;;;;;;7.13;4.95;;;17.60;79.20;;;;;;4937266;29;20551;-85
2023/05/13 10:21:13;;;;;;;7.53;5.15;;;17.60;79.20;;;;;;4918757;29;20501;-84
2023/05/13 10:23:38;;;;;;;8.38;4.72;;;17.60;79.30;;;;;;4935886;29;20027;-84
2023/05/13 10:26:06;;;;;;;6.60;4.50;;;17.60;79.30;;;;;;4919092;29;20079;-84
2023/05/13 10:28:32;;;;;;;7.55;4.75;;;17.60;79.40;;;;;;4935581;29;20111;-84
2023/05/13 10:30:58;;;;;;;8.30;4.78;;;17.60;79.30;;;;;;4936811;29;20083;-85
2023/05/13 10:33:23;;;;;;;6.60;4.70;;;17.60;79.50;;;;;;4919843;29;20023;-83
2023/05/13 10:36:11;;;;;;;6.78;4.97;;;17.60;79.50;;;;;;4935641;29;20508;-84
2023/05/13 10:38:55;;;;;;;7.10;4.70;;;17.60;79.40;;;;;;4920619;29;20092;-84
2023/05/13 10:41:48;;;;;;;6.60;4.22;;;17.60;79.40;;;;;;4937146;29;20028;-86
2023/05/13 10:44:13;;;;;;;7.18;4.80;;;17.60;79.50;;;;;;4919105;29;20027;-84
2023/05/13 10:46:41;;;;;;;7.60;4.72;;;17.60;79.50;;;;;;4919342;29;20392;-84
2023/05/13 10:49:14;;;;;;;6.55;4.40;;;17.60;79.40;;;;;;4935471;29;20028;-84
2023/05/13 10:51:48;;;;;;;7.55;5.03;;;17.70;79.60;;;;;;4934622;29;20039;-84
2023/05/13 10:54:22;;;;;;;8.27;5.05;;;17.60;79.50;;;;;;4917488;29;20075;-84
2023/05/13 10:56:57;;;;;;;7.43;4.60;;;17.70;79.50;;;;;;4917519;29;20579;-84
2023/05/13 10:59:23;;;;;;;7.60;4.88;;;17.70;79.60;;;;;;4917812;29;20028;-84
2023/05/13 11:01:49;;;;;;;6.90;4.72;;;17.70;79.60;;;;;;4917872;29;20503;-84
2023/05/13 11:04:17;;;;;;;6.47;4.40;;;17.70;79.70;;;;;;4917289;29;20031;-83
2023/05/13 11:06:45;;;;;;;6.80;4.70;;;17.70;79.60;;;;;;4934491;29;20035;-84
2023/05/13 11:09:19;;;;;;;6.60;4.55;;;17.70;79.70;;;;;;4917751;29;20036;-84
2023/05/13 11:11:56;;;;;;;7.15;4.68;;;17.70;79.70;;;;;;4934936;29;20078;-83
2023/05/13 11:14:24;;;;;;;6.50;4.30;;;17.70;79.70;;;;;;4916793;29;20047;-84
2023/05/13 11:16:54;;;;;;;7.53;4.78;;;17.70;79.60;;;;;;4934941;29;20028;-84
2023/05/13 11:19:26;;;;;;;6.75;4.55;;;17.70;79.70;;;;;;4917559;29;20038;-84
2023/05/13 11:21:55;;;;;;;7.97;4.95;;;17.70;80.20;;;;;;4917526;29;20034;-85
2023/05/13 11:24:21;;;;;;;6.78;4.38;;;17.60;79.70;;;;;;4917184;29;20063;-85
2023/05/13 11:26:53;;;;;;;6.43;4.15;;;17.70;79.80;;;;;;4917828;29;20020;-85
2023/05/13 11:29:35;;;;;;;8.15;4.57;;;17.70;79.70;;;;;;4917524;29;20028;-84
2023/05/13 11:32:04;;;;;;;7.82;4.55;;;17.60;79.80;;;;;;4917714;29;20050;-84
2023/05/13 11:34:31;;;;;;;8.90;5.03;;;17.70;80.20;;;;;;4936159;29;20027;-84
2023/05/13 11:37:07;;;;;;;9.45;4.70;;;17.70;80.10;;;;;;4938096;29;20078;-84
2023/05/13 11:39:33;;;;;;;8.52;4.55;;;17.60;80.10;;;;;;4920770;29;20028;-85
2023/05/13 11:42:01;;;;;;;8.63;4.70;;;17.60;80.00;;;;;;4920978;29;20035;-85
2023/05/13 11:44:27;;;;;;;6.57;4.47;;;17.60;80.00;;;;;;4937682;29;20488;-85
2023/05/13 11:46:56;;;;;;;8.50;4.50;;;17.60;80.20;;;;;;4940416;29;20130;-85
2023/05/13 11:49:32;;;;;;;8.20;4.57;;;17.70;80.20;;;;;;4924711;29;20076;-87
2023/05/13 11:52:09;;;;;;;7.55;4.80;;;17.60;80.10;;;;;;4926545;29;20024;-83
2023/05/13 11:54:43;;;;;;;8.35;4.20;;;17.60;80.00;;;;;;4916344;29;20020;-84
2023/05/13 11:57:27;;;;;;;6.93;4.50;;;17.60;80.10;;;;;;4924123;29;20063;-84
2023/05/13 11:59:56;;;;;;;7.72;4.60;;;17.60;80.30;;;;;;4924863;29;20028;-82
2023/05/13 12:02:33;;;;;;;7.13;4.32;;;17.60;80.30;;;;;;4942054;29;20132;-85
2023/05/13 12:05:03;;;;;;;7.13;4.40;;;17.60;80.30;;;;;;4926824;29;20057;-85
2023/05/13 12:07:28;;;;;;;8.48;4.47;;;17.60;80.00;;;;;;4925934;29;20457;-85
2023/05/13 12:09:59;;;;;;;6.45;4.30;;;17.60;80.00;;;;;;4924172;29;20059;-84
2023/05/13 12:12:26;;;;;;;6.78;4.50;;;17.60;80.10;;;;;;4924278;29;20114;-84
2023/05/13 12:14:53;;;;;;;6.97;3.72;;;17.60;80.70;;;;;;4941336;29;20055;-84
2023/05/13 12:17:19;;;;;;;6.28;4.10;;;17.60;80.20;;;;;;4923529;29;20055;-86
2023/05/13 12:20:23;;;;;;;8.32;4.50;;;17.60;80.20;;;;;;4940733;29;20115;-84
2023/05/13 12:22:51;;;;;;;6.32;4.28;;;17.60;80.20;;;;;;4866186;29;20132;-85
2023/05/13 12:25:36;;;;;;;6.78;4.28;;;17.60;80.30;;;;;;4865555;29;20039;-84
2023/05/13 12:28:20;;;;;;;7.25;4.50;;;17.60;80.40;;;;;;4901069;29;20046;-83
2023/05/13 12:30:56;;;;;;;7.72;4.28;;;17.50;80.50;;;;;;4917103;29;20039;-83
2023/05/13 12:33:32;;;;;;;7.05;4.43;;;17.60;80.50;;;;;;4923287;29;20028;-85
2023/05/13 12:36:19;;;;;;;5.93;4.00;;;17.50;80.50;;;;;;4940622;29;20074;-85
2023/05/13 12:38:59;;;;;;;7.13;4.10;;;17.50;80.50;;;;;;4919198;29;20056;-81
2023/05/13 12:41:27;;;;;;;6.88;4.10;;;17.50;80.50;;;;;;4925256;29;20516;-86
2023/05/13 12:44:02;;;;;;;7.00;4.32;;;17.50;80.50;;;;;;4924355;29;20400;-85
2023/05/13 12:46:28;;;;;;;6.90;4.32;;;17.50;80.50;;;;;;4924202;29;20595;-86
2023/05/13 12:48:58;;;;;;;6.90;4.30;;;17.50;80.50;;;;;;4924392;29;20472;-85
2023/05/13 12:51:24;;;;;;;7.72;4.07;;;17.50;80.60;;;;;;4924569;29;20023;-85
2023/05/13 12:53:52;;;;;;;7.10;4.20;;;17.50;80.70;;;;;;4923229;29;20456;-85
2023/05/13 12:56:18;;;;;;;6.43;4.32;;;17.50;80.80;;;;;;4923394;29;20020;-84
2023/05/13 12:58:44;;;;;;;6.97;4.32;;;17.50;80.80;;;;;;4940312;29;20384;-85
2023/05/13 13:01:10;;;;;;;6.63;4.40;;;17.50;80.80;;;;;;4923147;29;20027;-84
2023/05/13 13:03:35;;;;;;;6.82;4.03;;;17.50;80.80;;;;;;4923465;29;20055;-84
2023/05/13 13:06:01;;;;;;;7.68;4.03;;;17.50;80.80;;;;;;4923574;29;20503;-84
2023/05/13 13:08:27;;;;;;;6.55;4.15;;;17.50;80.80;;;;;;4923748;29;20036;-84
2023/05/13 13:10:53;;;;;;;7.72;4.47;;;17.50;80.80;;;;;;4940003;29;20023;-85
2023/05/13 13:13:18;;;;;;;6.05;4.00;;;17.40;80.80;;;;;;4922558;29;20071;-83
2023/05/13 13:15:44;;;;;;;5.95;4.30;;;17.40;80.80;;;;;;4922436;29;20059;-84
2023/05/13 13:18:09;;;;;;;7.07;4.00;;;17.40;80.80;;;;;;4939853;29;20032;-84
2023/05/13 13:20:36;;;;;;;7.22;4.50;;;17.40;80.80;;;;;;4920587;29;20036;-84
2023/05/13 13:23:01;;;;;;;7.00;4.00;;;17.40;80.90;;;;;;4920823;29;20089;-84
2023/05/13 13:25:27;;;;;;;5.80;4.10;;;17.40;80.90;;;;;;4921939;29;20548;-84
2023/05/13 13:27:53;;;;;;;6.53;4.05;;;17.40;80.90;;;;;;4920180;29;20030;-84
2023/05/13 13:30:19;;;;;;;5.85;3.97;;;17.40;80.90;;;;;;4919688;29;20034;-84
2023/05/13 13:32:44;;;;;;;6.13;3.80;;;17.40;81.00;;;;;;4919925;29;20024;-84
2023/05/13 13:35:10;;;;;;;6.78;4.30;;;17.40;80.90;;;;;;4938846;29;20032;-84
2023/05/13 13:37:35;;;;;;;7.20;4.35;;;17.40;80.90;;;;;;4921286;29;20028;-84
2023/05/13 13:40:01;;;;;;;6.38;4.35;;;17.40;81.00;;;;;;4921100;29;20095;-84
2023/05/13 13:42:27;;;;;;;6.88;4.10;;;17.40;81.10;;;;;;4938315;29;20485;-84
2023/05/13 13:44:52;;;;;;;5.50;4.07;;;17.40;81.10;;;;;;4920856;29;20031;-84
2023/05/13 13:47:18;;;;;;;5.82;4.00;;;17.40;81.10;;;;;;4921238;29;20031;-85
2023/05/13 13:49:43;;;;;;;5.93;3.88;;;17.40;81.10;;;;;;4938067;29;20035;-83
2023/05/13 13:52:09;;;;;;;5.78;4.10;;;17.40;81.10;;;;;;4937922;29;20024;-84
2023/05/13 13:54:35;;;;;;;6.72;3.85;;;17.40;81.20;;;;;;4920028;29;20485;-84
2023/05/13 13:57:00;;;;;;;6.32;3.95;;;17.40;81.20;;;;;;4941625;23;20035;-83
2023/05/13 13:59:26;;;;;;;6.63;4.10;;;17.40;81.20;;;;;;4916062;29;20270;-84
2023/05/13 14:01:52;;;;;;;5.88;3.55;;;17.40;81.20;;;;;;4916015;29;20088;-83
2023/05/13 14:04:19;;;;;;;6.65;4.43;;;17.30;81.20;;;;;;4915947;29;20028;-84
2023/05/13 14:06:45;;;;;;;6.90;3.90;;;17.30;81.20;;;;;;4931819;29;20084;-85
2023/05/13 14:09:11;;;;;;;6.45;4.30;;;17.40;81.30;;;;;;4894965;29;20454;-81
2023/05/13 14:11:36;;;;;;;5.47;3.78;;;17.40;81.30;;;;;;4892934;29;20032;-85
2023/05/13 14:14:02;;;;;;;6.35;3.78;;;17.40;81.30;;;;;;4897540;29;20020;-84
2023/05/13 14:16:27;;;;;;;5.75;3.75;;;17.30;81.30;;;;;;4897573;29;20028;-84
2023/05/13 14:18:53;;;;;;;6.05;3.60;;;17.30;81.30;;;;;;4897769;29;20109;-84
2023/05/13 14:21:18;;;;;;;6.53;4.05;;;17.30;81.30;;;;;;4913430;29;20375;-84
2023/05/13 14:23:44;;;;;;;7.00;4.00;;;17.30;81.30;;;;;;4912844;29;20029;-85
2023/05/13 14:26:12;;;;;;;10.30;3.88;;;17.30;81.40;;;;;;4897311;29;20131;-84
2023/05/13 14:28:37;;;;;;;7.15;4.18;;;17.30;81.30;;;;;;4912769;29;20174;-85
2023/05/13 14:31:03;;;;;;;9.18;4.40;;;17.30;81.30;;;;;;4898777;29;20116;-85
2023/05/13 14:33:30;;;;;;;9.35;3.92;;;17.30;81.40;;;;;;4897349;29;20486;-84
2023/05/13 14:35:55;;;;;;;9.38;4.30;;;17.30;81.40;;;;;;4916114;29;20203;-83
2023/05/13 14:38:21;;;;;;;8.30;3.97;;;17.30;81.40;;;;;;4917237;29;20103;-85
2023/05/13 14:40:46;;;;;;;6.47;3.78;;;17.30;81.40;;;;;;4916218;29;20429;-85
2023/05/13 14:43:12;;;;;;;6.80;3.92;;;17.30;81.40;;;;;;4899905;29;20034;-85
2023/05/13 14:45:38;;;;;;;8.45;3.90;;;17.40;81.40;;;;;;4884433;29;20052;-85
2023/05/13 14:48:04;;;;;;;7.93;3.72;;;17.40;81.40;;;;;;4899798;29;20034;-87
2023/05/13 14:50:29;;;;;;;9.40;3.92;;;17.40;81.30;;;;;;4899808;29;20392;-85
2023/05/13 14:52:55;;;;;;;6.75;3.90;;;17.40;81.20;;;;;;4899857;29;20549;-85
2023/05/13 14:55:20;;;;;;;5.82;3.80;;;17.40;81.20;;;;;;4915482;29;20092;-85
2023/05/13 14:57:46;;;;;;;6.97;4.00;;;17.40;81.20;;;;;;4915809;29;20064;-85
2023/05/13 15:00:12;;;;;;;7.43;3.40;;;17.40;81.10;;;;;;4900017;29;20397;-86
2023/05/13 15:02:37;;;;;;;6.88;3.80;;;17.40;81.20;;;;;;4899903;29;20036;-85
2023/05/13 15:05:03;;;;;;;6.43;3.80;;;17.40;81.70;;;;;;4899976;29;20067;-85
2023/05/13 15:07:28;;;;;;;6.88;3.60;;;17.40;81.30;;;;;;4900702;29;20028;-86
2023/05/13 15:09:54;;;;;;;8.27;3.90;;;17.40;81.40;;;;;;4920841;29;20083;-88
2023/05/13 15:12:21;;;;;;;9.52;4.25;;;17.40;81.30;;;;;;4920761;29;20025;-88
2023/05/13 15:14:53;;;;;;;8.35;3.80;;;17.40;81.40;;;;;;4903805;29;20024;-88
2023/05/13 15:17:19;;;;;;;6.55;3.42;;;17.40;81.30;;;;;;4919558;29;20032;-88
2023/05/13 15:19:45;;;;;;;6.20;3.58;;;17.40;81.30;;;;;;4903558;29;20497;-85
2023/05/13 15:22:11;;;;;;;7.20;3.72;;;17.40;81.30;;;;;;4904285;29;20446;-88
2023/05/13 15:24:37;;;;;;;6.13;3.60;;;17.40;81.40;;;;;;4919770;29;20119;-87
2023/05/13 15:27:03;;;;;;;7.80;3.83;;;17.40;81.40;;;;;;4903672;29;20055;-88
2023/05/13 15:29:29;;;;;;;6.30;4.10;;;17.30;81.50;;;;;;4920974;29;20516;-85
2023/05/13 15:31:54;;;;;;;5.88;3.53;;;17.30;81.50;;;;;;4903884;29;20035;-88
2023/05/13 15:34:19;;;;;;;5.85;3.65;;;17.40;81.50;;;;;;4903467;29;20120;-85
2023/05/13 15:36:45;;;;;;;6.43;3.75;;;17.30;81.50;;;;;;4906865;29;20135;-88
2023/05/13 15:39:10;;;;;;;5.45;3.33;;;17.30;81.60;;;;;;4902228;29;20036;-88
2023/05/13 15:41:36;;;;;;;5.72;3.63;;;17.30;81.60;;;;;;4919443;29;20100;-87
2023/05/13 15:44:02;;;;;;;6.40;3.80;;;17.30;81.70;;;;;;4902115;29;20035;-86
2023/05/13 15:46:28;;;;;;;8.73;3.80;;;17.30;81.80;;;;;;4919342;29;20397;-88
2023/05/13 15:48:53;;;;;;;6.45;3.25;;;17.30;81.80;;;;;;4902554;29;20122;-85
2023/05/13 15:51:19;;;;;;;5.82;4.00;;;17.30;81.80;;;;;;4920151;29;20091;-80
2023/05/13 15:53:45;;;;;;;6.28;3.42;;;17.30;81.90;;;;;;4919652;29;20031;-80
2023/05/13 15:56:10;;;;;;;6.60;3.63;;;17.30;82.00;;;;;;4918802;29;20028;-79
2023/05/13 15:58:36;;;;;;;7.70;4.10;;;17.30;81.30;;;;;;4919286;29;20135;-82
2023/05/13 16:01:01;;;;;;;10.77;4.15;;;17.30;78.40;;;;;;4902550;29;20021;-86
2023/05/13 16:03:27;;;;;;;9.23;3.92;;;17.30;78.70;;;;;;4918150;29;20485;-86
2023/05/13 16:05:54;;;;;;;7.50;3.83;;;17.30;79.30;;;;;;4902936;29;20024;-88
2023/05/13 16:08:19;;;;;;;6.38;3.67;;;17.30;79.40;;;;;;4902986;29;20560;-84
2023/05/13 16:10:45;;;;;;;7.28;3.75;;;17.30;79.70;;;;;;4898678;29;20032;-87
2023/05/13 16:13:10;;;;;;;9.20;3.58;;;17.30;79.90;;;;;;4903527;29;20404;-87
2023/05/13 16:15:36;;;;;;;6.38;3.70;;;17.30;80.10;;;;;;4920531;29;20028;-87
2023/05/13 16:18:02;;;;;;;9.85;3.70;;;17.30;80.40;;;;;;4903448;29;20396;-84
2023/05/13 16:20:27;;;;;;;6.15;3.55;;;17.30;80.40;;;;;;4902894;29;20040;-88
2023/05/13 16:22:53;;;;;;;7.18;3.67;;;17.30;80.60;;;;;;4903424;29;20028;-86
2023/05/13 16:25:18;;;;;;;6.65;3.92;;;17.30;80.80;;;;;;4920783;29;20083;-82
2023/05/13 16:27:44;;;;;;;6.80;3.63;;;17.30;80.80;;;;;;4919447;29;20024;-87
2023/05/13 16:30:10;;;;;;;7.78;4.07;;;17.30;80.60;;;;;;4903518;29;20119;-84
2023/05/13 16:32:36;;;;;;;7.07;3.78;;;17.30;80.60;;;;;;4885400;29;20033;-87
2023/05/13 16:35:02;;;;;;;6.07;3.90;;;17.30;80.70;;;;;;4900363;29;20028;-85
2023/05/13 16:37:28;;;;;;;7.25;3.47;;;17.30;80.80;;;;;;4885051;29;20378;-85
2023/05/13 16:39:54;;;;;;;6.65;3.72;;;17.30;80.90;;;;;;4884824;29;20035;-86
2023/05/13 16:42:19;;;;;;;6.82;4.40;;;17.30;81.00;;;;;;4900435;29;20115;-86
2023/05/13 16:44:45;;;;;;;5.85;3.70;;;17.30;81.10;;;;;;4884097;29;20056;-84
2023/05/13 16:47:11;;;;;;;6.85;3.90;;;17.30;81.10;;;;;;4885204;29;20036;-83
2023/05/13 16:49:37;;;;;;;7.20;3.80;;;17.30;81.20;;;;;;4885948;29;20029;-81
2023/05/13 16:52:03;;;;;;;8.43;4.47;;;17.20;81.20;;;;;;4900120;29;20032;-79